| Date | Time | Temp. (oF) | Dew Point (oF) | Rel. Hum. (%) | Press. (in.) | Wind Dir. (deg.) | Wind Speed (mph) | Hourly Rainfall (i n.) |
|
|---|---|---|---|---|---|---|---|---|---|
| 1 | 10/30 | 24:00 | 50 | 45 | 85 | 30.42 | 120 | 0 | 0.00 |
| 2 | 10/29 | 23:00 | 51 | 46 | 84 | 30.43 | 120 | 0 | 0.00 |
| 3 | 10/29 | 22:00 | 53 | 48 | 84 | 30.43 | 120 | 0 | 0.00 |
| 4 | 10/29 | 21:00 | 54 | 48 | 82 | 30.43 | 120 | 0 | 0.00 |
| 5 | 10/29 | 20:00 | 56 | 49 | 79 | 30.42 | 120 | 0 | 0.00 |
| 6 | 10/29 | 19:00 | 59 | 49 | 71 | 30.43 | 120 | 0 | 0.00 |
| 7 | 10/29 | 18:00 | 63 | 50 | 63 | 30.43 | 120 | 0 | 0.00 |
| 8 | 10/29 | 17:00 | 66 | 51 | 59 | 30.44 | 120 | 0 | 0.00 |
| 9 | 10/29 | 16:00 | 67 | 51 | 58 | 30.43 | 120 | 1 | 0.00 |
| 10 | 10/29 | 15:00 | 66 | 50 | 57 | 30.42 | 120 | 1 | 0.00 |
| 11 | 10/29 | 14:00 | 64 | 50 | 62 | 30.41 | 120 | 1 | 0.00 |
| 12 | 10/29 | 13:00 | 60 | 46 | 62 | 30.43 | 350 | 0 | 0.00 |
| 13 | 10/29 | 12:00 | 58 | 47 | 67 | 30.43 | 130 | 1 | 0.00 |
| 14 | 10/29 | 11:00 | 52 | 44 | 76 | 30.42 | 150 | 1 | 0.00 |
| 15 | 10/29 | 10:00 | 47 | 41 | 81 | 30.42 | 150 | 0 | 0.00 |
| 16 | 10/29 | 09:00 | 42 | 36 | 82 | 30.41 | 150 | 0 | 0.00 |
| 17 | 10/29 | 08:00 | 40 | 34 | 81 | 30.40 | 150 | 0 | 0.00 |
| 18 | 10/29 | 07:00 | 40 | 34 | 81 | 30.40 | 150 | 0 | 0.00 |
| 19 | 10/29 | 06:00 | 40 | 34 | 81 | 30.43 | 150 | 0 | 0.00 |
| 20 | 10/29 | 05:00 | 41 | 35 | 81 | 30.42 | 150 | 0 | 0.00 |
| 21 | 10/29 | 04:00 | 41 | 35 | 81 | 30.41 | 150 | 0 | 0.00 |
| 22 | 10/29 | 03:00 | 42 | 36 | 81 | 30.42 | 150 | 0 | 0.00 |
| 23 | 10/29 | 02:00 | 42 | 36 | 81 | 30.42 | 150 | 0 | 0.00 |
| 24 | 10/29 | 01:00 | 43 | 36 | 79 | 30.43 | 150 | 0 | 0.00 |